Time;durP1;ratioP1;P1;durP2;ratioP2;P2;SDS_P1;SDS_P2;PMS_P1;PMS_P2;Temp;Humidity;BMP_temperature;BMP_pressure;BME280_temperature;BME280_humidity;BME280_pressure;Samples;Min_cycle;Max_cycle;Signal;HPM_P1;HPM_P2
2022/02/18 00:00:38;;;;;;;38.25;24.32;;;;;;;5.94;86.16;98956.73;1783265;80;20884;-73
2022/02/18 00:03:05;;;;;;;38.28;24.00;;;;;;;5.97;86.20;98951.34;1783508;80;20912;-76
2022/02/18 00:05:32;;;;;;;35.78;23.22;;;;;;;5.99;86.23;98956.80;1783405;80;20940;-77
2022/02/18 00:07:59;;;;;;;33.20;22.40;;;;;;;6.03;86.21;98963.94;1783655;80;20888;-77
2022/02/18 00:10:26;;;;;;;31.42;22.95;;;;;;;6.06;86.32;98962.41;1783530;80;21092;-75
2022/02/18 00:12:53;;;;;;;41.80;23.57;;;;;;;6.07;86.36;98943.28;1783422;80;20979;-76
2022/02/18 00:15:20;;;;;;;32.42;22.00;;;;;;;6.08;86.36;98917.61;1783634;80;21389;-76
2022/02/18 00:17:47;;;;;;;32.60;23.32;;;;;;;6.10;86.35;98921.41;1783547;80;20971;-75
2022/02/18 00:20:14;;;;;;;30.68;21.68;;;;;;;6.07;86.47;98930.27;1783582;80;20896;-76
2022/02/18 00:22:43;;;;;;;37.73;22.42;;;;;;;6.07;86.56;98928.97;1783526;80;21528;-73
2022/02/18 00:25:10;;;;;;;39.10;23.20;;;;;;;6.07;86.66;98944.58;1783548;80;20920;-76
2022/02/18 00:27:38;;;;;;;35.83;23.22;;;;;;;6.07;86.69;98936.77;1783400;80;21311;-75
2022/02/18 00:30:07;;;;;;;38.78;23.10;;;;;;;6.09;86.74;98942.70;1783368;80;20955;-74
2022/02/18 00:32:34;;;;;;;34.60;21.85;;;;;;;6.10;86.84;98934.42;1783661;80;21521;-76
2022/02/18 00:35:01;;;;;;;31.93;22.10;;;;;;;6.10;86.88;98924.84;1783441;80;21561;-74
2022/02/18 00:37:28;;;;;;;36.40;22.30;;;;;;;6.10;86.89;98927.45;1783395;80;20885;-74
2022/02/18 00:39:56;;;;;;;33.80;24.20;;;;;;;6.12;86.92;98937.76;1783437;80;20908;-74
2022/02/18 00:42:24;;;;;;;39.83;25.65;;;;;;;6.11;86.97;98935.60;1776762;80;20968;-74
2022/02/18 00:44:51;;;;;;;39.35;23.45;;;;;;;6.12;87.00;98937.76;1768223;80;20896;-75
2022/02/18 00:47:18;;;;;;;34.67;23.40;;;;;;;6.13;87.01;98938.11;1768150;81;21160;-76
2022/02/18 00:49:45;;;;;;;38.80;24.23;;;;;;;6.13;87.05;98944.61;1767937;80;20980;-75
2022/02/18 00:52:12;;;;;;;37.08;21.87;;;;;;;6.13;87.11;98949.81;1768186;81;20881;-74
2022/02/18 00:54:39;;;;;;;35.48;23.25;;;;;;;6.10;87.17;98949.56;1768094;81;20956;-72
2022/02/18 00:57:07;;;;;;;35.58;22.55;;;;;;;6.11;87.18;98949.91;1768004;81;20968;-75
2022/02/18 00:59:34;;;;;;;38.67;24.87;;;;;;;6.11;87.25;98939.98;1768443;80;21072;-76
2022/02/18 01:02:01;;;;;;;35.25;24.60;;;;;;;6.10;87.32;98945.66;1767969;81;20916;-76
2022/02/18 01:04:30;;;;;;;38.25;23.98;;;;;;;6.11;87.40;98934.77;1768036;81;20881;-75
2022/02/18 01:06:58;;;;;;;41.37;25.32;;;;;;;6.10;87.48;98952.16;1768086;81;21429;-78
2022/02/18 01:09:26;;;;;;;37.63;24.32;;;;;;;6.11;87.54;98934.77;1768109;81;20999;-77
2022/02/18 01:11:54;;;;;;;34.80;23.50;;;;;;;6.11;87.59;98934.30;1768084;80;21382;-78
2022/02/18 01:14:22;;;;;;;37.95;24.32;;;;;;;6.12;87.71;98929.47;1768106;81;21002;-78
2022/02/18 01:16:51;;;;;;;39.65;26.30;;;;;;;6.14;87.68;98940.61;1768427;81;21370;-75
2022/02/18 01:19:18;;;;;;;38.45;24.75;;;;;;;6.16;87.81;98937.44;1768016;80;20976;-75
2022/02/18 01:21:45;;;;;;;39.33;24.27;;;;;;;6.18;87.78;98938.17;1768518;81;21393;-77
2022/02/18 01:24:12;;;;;;;37.33;24.55;;;;;;;6.20;87.79;98931.09;1768008;80;21069;-76
2022/02/18 01:26:39;;;;;;;42.80;25.25;;;;;;;6.21;87.79;98937.12;1768144;81;20936;-77
2022/02/18 01:29:06;;;;;;;38.25;23.25;;;;;;;6.22;87.79;98942.67;1768201;80;20933;-77
2022/02/18 01:31:33;;;;;;;40.78;25.10;;;;;;;6.23;87.81;98950.86;1768238;80;20940;-75
2022/02/18 01:34:00;;;;;;;34.92;23.67;;;;;;;6.25;87.83;98954.20;1768198;81;20845;-74
2022/02/18 01:36:27;;;;;;;43.02;24.60;;;;;;;6.28;87.84;98951.84;1768383;80;21096;-75
2022/02/18 01:38:55;;;;;;;33.55;24.40;;;;;;;6.28;87.81;98937.53;1767980;80;20991;-74
2022/02/18 01:41:21;;;;;;;40.80;23.92;;;;;;;6.29;87.81;98952.19;1768216;81;21411;-76
2022/02/18 01:43:56;;;;;;;38.98;24.47;;;;;;;6.30;87.78;98956.00;1775655;80;20881;-75
2022/02/18 01:46:23;;;;;;;36.85;23.50;;;;;;;6.33;87.74;98954.47;1775218;80;20983;-77
2022/02/18 01:48:50;;;;;;;42.35;26.60;;;;;;;6.35;87.69;98951.77;1775095;80;21123;-77
2022/02/18 01:51:19;;;;;;;33.23;22.77;;;;;;;6.37;87.61;98951.20;1775232;80;20921;-77
2022/02/18 01:53:48;;;;;;;36.53;21.87;;;;;;;6.39;87.56;98956.66;1775415;80;20896;-77
2022/02/18 01:56:15;;;;;;;38.95;24.82;;;;;;;6.41;87.50;98948.28;1775138;80;20952;-76
2022/02/18 01:58:41;;;;;;;44.60;23.15;;;;;;;6.44;87.44;98954.56;1775154;80;21377;-76
2022/02/18 02:01:09;;;;;;;40.40;24.82;;;;;;;6.47;87.33;98949.63;1775143;80;21081;-75
2022/02/18 02:03:37;;;;;;;41.33;26.33;;;;;;;6.49;87.25;98950.36;1775208;80;20976;-75
2022/02/18 02:06:05;;;;;;;44.42;27.25;;;;;;;6.51;87.14;98960.65;1775353;80;21466;-76
2022/02/18 02:08:36;;;;;;;43.02;25.85;;;;;;;6.51;87.06;98966.68;1775199;80;21031;-78
2022/02/18 02:11:04;;;;;;;42.50;27.42;;;;;;;6.53;87.03;98956.16;1775283;80;20940;-76
2022/02/18 02:13:37;;;;;;;43.70;25.52;;;;;;;6.55;86.98;98955.11;1775318;80;21136;-80
2022/02/18 02:16:14;;;;;;;43.42;25.60;;;;;;;6.57;86.84;98954.54;1775373;80;20869;-77
2022/02/18 02:18:41;;;;;;;42.88;25.65;;;;;;;6.58;86.74;98954.92;1775895;80;20935;-78
2022/02/18 02:21:13;;;;;;;41.95;26.93;;;;;;;6.59;86.69;98960.95;1776639;80;21416;-77
2022/02/18 02:23:42;;;;;;;44.25;27.48;;;;;;;6.60;86.59;98963.91;1775319;80;21006;-76
2022/02/18 02:26:11;;;;;;;44.60;24.75;;;;;;;6.60;86.56;98964.77;1775302;80;21553;-77
2022/02/18 02:28:38;;;;;;;38.50;25.62;;;;;;;6.60;86.53;98963.45;1775070;80;20983;-77
2022/02/18 02:31:05;;;;;;;50.92;27.05;;;;;;;6.62;86.49;98966.76;1775186;80;20888;-76
2022/02/18 02:33:34;;;;;;;42.53;26.17;;;;;;;6.63;86.37;98963.23;1775141;80;20944;-76
2022/02/18 02:36:01;;;;;;;52.30;27.35;;;;;;;6.65;86.30;98972.25;1775398;80;20888;-76
2022/02/18 02:38:28;;;;;;;39.15;24.65;;;;;;;6.67;86.24;98982.54;1775340;80;21574;-76
2022/02/18 02:40:56;;;;;;;36.23;23.65;;;;;;;6.66;86.10;98976.50;1775048;80;21461;-77
2022/02/18 02:43:23;;;;;;;45.10;25.45;;;;;;;6.67;86.08;98983.84;1775372;80;20924;-75
2022/02/18 02:45:49;;;;;;;37.33;23.25;;;;;;;6.68;85.99;98980.31;1775103;80;21076;-76
2022/02/18 02:48:16;;;;;;;43.33;27.10;;;;;;;6.68;85.90;98977.23;1775296;80;20983;-76
2022/02/18 02:51:01;;;;;;;41.37;23.70;;;;;;;6.67;85.84;98991.20;1773615;80;22074;-76
2022/02/18 02:53:28;;;;;;;38.60;23.90;;;;;;;6.66;85.80;98988.70;1775211;80;20880;-74
2022/02/18 02:55:55;;;;;;;44.10;25.15;;;;;;;6.66;85.79;98983.49;1775589;80;20979;-76
2022/02/18 02:58:23;;;;;;;40.00;24.43;;;;;;;6.66;85.70;98983.02;1775148;80;20865;-77
2022/02/18 03:00:51;;;;;;;41.53;23.92;;;;;;;6.63;85.66;98986.67;1775572;80;20876;-75
2022/02/18 03:03:23;;;;;;;34.10;23.55;;;;;;;6.59;85.67;98974.80;1746595;80;21507;-77
2022/02/18 03:05:58;;;;;;;41.88;23.05;;;;;;;6.57;85.68;98960.23;1774960;80;20916;-77
2022/02/18 03:08:25;;;;;;;41.63;25.35;;;;;;;6.56;85.67;98964.61;1776398;80;20924;-78
2022/02/18 03:13:39;;;;;;;42.95;27.00;;;;;;;6.53;85.73;98960.07;1775266;80;20920;-77
2022/02/18 03:16:07;;;;;;;42.70;25.90;;;;;;;6.51;85.73;98949.75;1775638;80;21135;-78
2022/02/18 03:18:34;;;;;;;40.75;23.98;;;;;;;6.50;85.70;98952.01;1775275;80;20939;-77
2022/02/18 03:21:00;;;;;;;39.23;24.95;;;;;;;6.48;85.63;98951.76;1775505;80;20925;-77
2022/02/18 03:23:28;;;;;;;40.60;25.02;;;;;;;6.46;85.63;98945.34;1775260;80;20888;-78
2022/02/18 03:25:55;;;;;;;41.37;24.98;;;;;;;6.45;85.61;98952.81;1753429;80;20904;-77
2022/02/18 03:28:22;;;;;;;41.63;27.02;;;;;;;6.43;85.63;98963.33;1775196;80;21130;-75
2022/02/18 03:30:49;;;;;;;37.38;26.07;;;;;;;6.43;85.62;98968.53;1775450;80;20888;-75
2022/02/18 03:33:16;;;;;;;35.85;23.62;;;;;;;6.44;85.57;98963.67;1775197;80;20916;-76
2022/02/18 03:35:43;;;;;;;48.95;27.30;;;;;;;6.43;85.57;98973.73;1775238;80;20865;-76
2022/02/18 03:38:10;;;;;;;44.50;26.80;;;;;;;6.44;85.52;98978.47;1775198;80;20927;-76
2022/02/18 03:40:38;;;;;;;32.30;24.27;;;;;;;6.47;85.53;98995.20;1775052;80;21767;-74
2022/02/18 03:43:08;;;;;;;39.27;23.87;;;;;;;6.50;85.51;99009.30;1775244;80;20971;-76
2022/02/18 03:45:36;;;;;;;51.40;26.40;;;;;;;6.50;85.41;99023.63;1774860;80;20959;-75
2022/02/18 03:48:05;;;;;;;39.27;24.87;;;;;;;6.49;85.29;99023.27;1774946;80;21075;-76
2022/02/18 03:50:32;;;;;;;39.53;24.95;;;;;;;6.48;85.18;99031.18;1775512;80;20928;-75
2022/02/18 03:53:00;;;;;;;37.40;25.55;;;;;;;6.43;85.13;99031.50;1775248;80;21743;-75
2022/02/18 03:55:26;;;;;;;41.60;25.05;;;;;;;6.40;85.14;99035.15;1775139;80;20996;-77
2022/02/18 03:57:56;;;;;;;38.67;25.57;;;;;;;6.38;85.19;99034.86;1775203;80;20924;-76
2022/02/18 04:00:24;;;;;;;41.28;26.45;;;;;;;6.35;85.17;99036.39;1753200;80;21002;-75
2022/02/18 04:02:50;;;;;;;39.27;25.27;;;;;;;6.34;85.19;99030.36;1775360;80;20936;-79
2022/02/18 04:05:35;;;;;;;45.05;26.40;;;;;;;6.33;85.24;99033.05;1775337;80;21164;-76
2022/02/18 04:08:10;;;;;;;38.02;26.12;;;;;;;6.31;85.17;99038.35;1773726;80;20896;-76
2022/02/18 04:10:37;;;;;;;47.88;27.85;;;;;;;6.29;85.10;99040.26;1775173;80;20928;-75
2022/02/18 04:13:06;;;;;;;45.45;28.55;;;;;;;6.27;85.05;99034.31;1774642;80;21456;-77
2022/02/18 04:15:34;;;;;;;36.23;24.95;;;;;;;6.25;85.02;99040.09;1775335;80;20928;-77
2022/02/18 04:18:01;;;;;;;40.35;26.60;;;;;;;6.21;84.95;99033.42;1775706;80;21358;-76
2022/02/18 04:20:30;;;;;;;40.70;26.05;;;;;;;6.18;84.95;99038.38;1774178;80;20896;-77
2022/02/18 04:22:57;;;;;;;35.50;25.05;;;;;;;6.17;84.94;99047.58;1775400;80;21410;-76
2022/02/18 04:25:26;;;;;;;40.15;26.73;;;;;;;6.15;84.89;99049.45;1774570;80;20967;-77
2022/02/18 04:27:58;;;;;;;44.95;26.45;;;;;;;6.13;84.79;99052.62;1775175;80;21481;-76
2022/02/18 04:30:25;;;;;;;39.23;25.77;;;;;;;6.11;84.77;99056.61;1773970;80;21425;-76
2022/02/18 04:32:53;;;;;;;37.20;26.15;;;;;;;6.10;84.78;99070.58;1775118;80;20849;-78
2022/02/18 04:35:20;;;;;;;42.55;27.07;;;;;;;6.10;84.77;99067.15;1775254;80;20873;-76
2022/02/18 04:37:47;;;;;;;40.60;27.45;;;;;;;6.08;84.64;99073.74;1775440;80;20936;-77
2022/02/18 04:40:14;;;;;;;38.02;26.15;;;;;;;6.07;84.61;99081.64;1775095;80;21019;-77
2022/02/18 04:42:42;;;;;;;40.70;27.40;;;;;;;6.05;84.61;99084.81;1775376;80;21374;-77
2022/02/18 04:45:09;;;;;;;43.02;29.42;;;;;;;6.01;84.70;99087.63;1774437;80;20975;-76
2022/02/18 04:47:39;;;;;;;41.83;26.17;;;;;;;5.98;84.74;99080.48;1775070;80;20950;-78
2022/02/18 04:50:08;;;;;;;42.23;27.90;;;;;;;5.97;84.82;99080.95;1775183;80;21461;-77
2022/02/18 04:52:35;;;;;;;49.75;29.82;;;;;;;5.97;84.78;99084.03;1775134;80;21525;-79
2022/02/18 04:55:03;;;;;;;45.25;30.08;;;;;;;5.97;84.81;99093.96;1775143;80;21455;-77
2022/02/18 04:57:31;;;;;;;45.60;29.42;;;;;;;6.00;84.87;99096.83;1775134;80;20919;-77
2022/02/18 04:59:59;;;;;;;50.33;30.57;;;;;;;6.04;84.81;99102.67;1775130;80;20917;-77
2022/02/18 05:02:26;;;;;;;43.98;30.77;;;;;;;6.03;84.64;99103.15;1775430;80;20943;-79
2022/02/18 05:04:54;;;;;;;40.75;28.40;;;;;;;6.03;84.58;99103.15;1775309;80;21025;-76
2022/02/18 05:07:21;;;;;;;42.43;29.50;;;;;;;6.05;84.61;99103.88;1775111;80;21338;-79
2022/02/18 05:09:48;;;;;;;47.48;29.35;;;;;;;6.07;84.55;99107.22;1775212;80;20991;-74
2022/02/18 05:12:17;;;;;;;43.20;28.57;;;;;;;6.10;84.47;99112.69;1775128;80;20884;-77
2022/02/18 05:14:44;;;;;;;45.50;28.35;;;;;;;6.11;84.37;99114.34;1775138;80;21088;-75
2022/02/18 05:17:10;;;;;;;45.25;29.12;;;;;;;6.13;84.25;99113.30;1775130;80;20928;-75
2022/02/18 05:19:38;;;;;;;50.17;32.98;;;;;;;6.14;84.18;99120.19;1775212;80;21308;-77
2022/02/18 05:22:05;;;;;;;60.05;32.60;;;;;;;6.15;84.01;99132.25;1774986;80;20897;-76
2022/02/18 05:24:34;;;;;;;45.75;29.25;;;;;;;6.16;83.93;99140.92;1775120;80;21394;-77
2022/02/18 05:27:00;;;;;;;48.33;30.68;;;;;;;6.17;83.79;99143.88;1775270;80;20900;-75
2022/02/18 05:29:29;;;;;;;42.20;27.87;;;;;;;6.16;83.74;99152.63;1774948;80;20908;-77
2022/02/18 05:31:56;;;;;;;47.00;28.52;;;;;;;6.18;83.59;99156.80;1775259;80;21136;-79
2022/02/18 05:34:23;;;;;;;42.20;26.73;;;;;;;6.19;83.47;99155.02;1775221;80;21469;-79
2022/02/18 05:36:51;;;;;;;42.53;25.48;;;;;;;6.20;83.28;99150.17;1775106;80;20857;-79
2022/02/18 05:39:18;;;;;;;41.02;25.05;;;;;;;6.19;83.10;99150.64;1775072;80;21327;-79
2022/02/18 05:41:45;;;;;;;33.30;22.58;;;;;;;6.21;82.92;99150.08;1775107;80;20920;-78
2022/02/18 05:44:12;;;;;;;36.25;22.55;;;;;;;6.22;82.72;99143.95;1775267;80;21969;-79
2022/02/18 05:46:39;;;;;;;35.83;23.35;;;;;;;6.25;82.46;99147.27;1775462;80;20916;-80
2022/02/18 05:49:05;;;;;;;36.48;23.38;;;;;;;6.26;82.26;99152.85;1772295;80;20940;-79
2022/02/18 05:51:33;;;;;;;36.25;22.70;;;;;;;6.28;82.03;99155.72;1768076;80;20850;-81
2022/02/18 05:54:00;;;;;;;38.73;23.18;;;;;;;6.32;81.85;99160.27;1768131;80;20889;-77
2022/02/18 05:58:02;;;;;;;33.65;23.80;;;;;;;6.43;81.48;99164.30;1798581;79;22565;-77
2022/02/18 06:00:29;;;;;;;33.48;22.15;;;;;;;6.39;81.25;99168.86;1758270;81;21040;-78
2022/02/18 06:02:57;;;;;;;31.05;20.60;;;;;;;6.41;80.99;99166.16;1758266;80;21425;-78
2022/02/18 06:05:23;;;;;;;32.15;22.52;;;;;;;6.44;80.72;99159.44;1758110;81;20963;-78
2022/02/18 06:07:50;;;;;;;31.12;21.17;;;;;;;6.47;80.39;99157.09;1758258;81;21327;-77
2022/02/18 06:10:18;;;;;;;36.05;23.92;;;;;;;6.49;80.25;99156.52;1758122;81;20916;-77
2022/02/18 06:12:45;;;;;;;56.13;34.50;;;;;;;6.51;80.16;99156.78;1758268;81;20908;-74
2022/02/18 06:15:12;;;;;;;66.07;37.70;;;;;;;6.53;80.06;99153.61;1758126;81;21130;-76
2022/02/18 06:17:44;;;;;;;66.28;38.13;;;;;;;6.57;79.89;99164.67;1758137;81;20923;-78
2022/02/18 06:20:11;;;;;;;58.55;37.95;;;;;;;6.59;79.70;99172.74;1758602;81;20869;-80
2022/02/18 06:22:38;;;;;;;51.18;30.43;;;;;;;6.60;79.57;99171.83;1758168;81;21006;-78
2022/02/18 06:25:08;;;;;;;38.73;25.92;;;;;;;6.62;79.41;99173.83;1758137;81;20912;-75
2022/02/18 06:27:35;;;;;;;37.50;21.60;;;;;;;6.66;79.25;99182.28;1756997;81;21151;-75
2022/02/18 06:30:03;;;;;;;38.10;22.22;;;;;;;6.69;79.03;99184.67;1758139;81;20882;-76
2022/02/18 06:32:31;;;;;;;33.65;22.37;;;;;;;6.72;78.83;99188.87;1757894;81;20932;-75
2022/02/18 06:34:58;;;;;;;28.40;19.95;;;;;;;6.73;78.57;99197.86;1758119;80;20940;-75
2022/02/18 06:37:24;;;;;;;29.82;19.85;;;;;;;6.75;78.32;99205.11;1758249;80;20968;-76
2022/02/18 06:39:51;;;;;;;37.58;21.10;;;;;;;6.76;78.20;99200.72;1758139;81;21053;-75
2022/02/18 06:42:18;;;;;;;37.30;23.00;;;;;;;6.79;77.92;99201.84;1758167;81;21072;-77
2022/02/18 06:44:45;;;;;;;37.13;22.10;;;;;;;6.81;77.73;99211.69;1758282;81;20932;-75
2022/02/18 06:47:12;;;;;;;39.25;22.27;;;;;;;6.83;77.48;99212.42;1758163;81;21377;-77
2022/02/18 06:49:44;;;;;;;37.73;21.85;;;;;;;6.82;77.25;99207.66;1758461;81;21401;-78
2022/02/18 06:52:09;;;;;;;36.40;22.32;;;;;;;6.85;77.11;99213.16;1758347;81;21075;-78
2022/02/18 06:54:36;;;;;;;32.73;22.22;;;;;;;6.87;77.21;99211.29;1758190;80;21023;-77
2022/02/18 06:57:05;;;;;;;34.53;22.77;;;;;;;6.88;77.16;99218.16;1752062;81;20889;-78
2022/02/18 06:59:32;;;;;;;35.10;23.07;;;;;;;6.94;77.21;99219.52;1744999;82;20862;-78
2022/02/18 07:01:59;;;;;;;33.53;22.70;;;;;;;6.99;77.22;99223.95;1745437;82;20885;-77
2022/02/18 07:04:26;;;;;;;32.13;20.88;;;;;;;7.03;77.11;99226.24;1745225;81;21832;-78
2022/02/18 07:06:53;;;;;;;33.15;21.95;;;;;;;7.10;76.86;99233.17;1745203;81;21358;-77
2022/02/18 07:09:20;;;;;;;36.58;22.35;;;;;;;7.17;76.60;99220.08;1744880;82;20865;-78
2022/02/18 07:11:47;;;;;;;30.85;20.60;;;;;;;7.24;76.47;99223.10;1745107;82;21782;-77
2022/02/18 07:14:16;;;;;;;35.03;21.85;;;;;;;7.32;76.38;99219.51;1744417;80;20933;-75
2022/02/18 07:16:43;;;;;;;29.52;19.52;;;;;;;7.40;76.11;99223.73;1745193;82;21108;-76
2022/02/18 07:19:11;;;;;;;31.37;21.95;;;;;;;7.48;75.64;99225.31;1744487;82;20885;-77
2022/02/18 07:21:38;;;;;;;30.12;20.40;;;;;;;7.57;75.34;99228.23;1744715;81;21354;-77
2022/02/18 07:24:08;;;;;;;28.87;17.45;;;;;;;7.67;75.00;99241.84;1744618;81;20975;-77
2022/02/18 07:26:34;;;;;;;21.90;16.67;;;;;;;7.75;74.09;99250.89;1744570;81;21011;-77
2022/02/18 07:29:02;;;;;;;30.75;16.97;;;;;;;7.82;73.95;99255.56;1744793;80;21099;-77
2022/02/18 07:31:29;;;;;;;26.37;16.97;;;;;;;7.86;73.25;99267.45;1744542;82;20842;-76
2022/02/18 07:33:56;;;;;;;24.65;18.15;;;;;;;7.91;72.90;99272.34;1744652;82;20913;-76
2022/02/18 07:36:23;;;;;;;32.63;21.05;;;;;;;7.97;72.69;99269.78;1744453;82;20900;-76
2022/02/18 07:38:50;;;;;;;27.87;21.57;;;;;;;8.02;72.31;99278.12;1744674;82;21445;-77
2022/02/18 07:41:17;;;;;;;32.13;22.37;;;;;;;8.03;72.12;99278.50;1744660;80;21555;-75
2022/02/18 07:43:44;;;;;;;29.10;22.55;;;;;;;8.02;71.77;99274.20;1744574;81;20960;-76
2022/02/18 07:46:11;;;;;;;31.50;22.95;;;;;;;8.01;71.66;99279.08;1744372;82;20893;-77
2022/02/18 07:48:38;;;;;;;33.70;21.90;;;;;;;8.04;71.65;99283.59;1744629;82;20899;-77
2022/02/18 07:51:06;;;;;;;30.27;20.90;;;;;;;8.11;71.68;99282.68;1744557;82;20889;-76
2022/02/18 07:53:35;;;;;;;29.63;18.02;;;;;;;8.19;71.64;99279.06;1744628;81;21178;-78
2022/02/18 07:56:02;;;;;;;20.23;15.18;;;;;;;8.29;71.25;99282.69;1744260;81;21450;-77
2022/02/18 07:58:30;;;;;;;24.47;15.05;;;;;;;8.36;70.23;99293.98;1744447;81;21625;-78
2022/02/18 08:00:56;;;;;;;21.87;15.25;;;;;;;8.38;70.01;99290.34;1744835;82;20932;-78
2022/02/18 08:03:25;;;;;;;25.40;16.70;;;;;;;8.43;69.60;99299.17;1744637;82;20884;-77
2022/02/18 08:05:53;;;;;;;22.70;15.75;;;;;;;8.44;69.28;99296.43;1744895;82;21132;-78
2022/02/18 08:08:20;;;;;;;24.75;13.70;;;;;;;8.43;69.00;99300.48;1744427;80;21323;-78
2022/02/18 08:10:48;;;;;;;14.15;9.28;;;;;;;8.38;68.99;99306.01;1744514;82;20976;-78
2022/02/18 08:13:14;;;;;;;16.52;10.13;;;;;;;8.33;68.37;99302.88;1744507;82;20929;-77
2022/02/18 08:15:43;;;;;;;17.02;9.60;;;;;;;8.30;68.59;99301.80;1744634;82;20881;-78
2022/02/18 08:18:11;;;;;;;13.00;7.85;;;;;;;8.29;68.54;99303.58;1744423;82;21158;-77
2022/02/18 08:20:40;;;;;;;10.50;5.55;;;;;;;8.32;68.29;99307.75;1744481;81;20897;-76
2022/02/18 08:23:07;;;;;;;9.60;5.85;;;;;;;8.33;67.79;99308.09;1744613;81;20975;-76
2022/02/18 08:25:34;;;;;;;17.07;7.75;;;;;;;8.35;67.79;99312.73;1744707;82;20945;-76
2022/02/18 08:28:01;;;;;;;12.03;7.58;;;;;;;8.35;67.52;99317.97;1744849;81;20881;-78
2022/02/18 08:30:28;;;;;;;10.85;6.03;;;;;;;8.35;67.40;99304.91;1744470;81;21142;-76
2022/02/18 08:32:55;;;;;;;11.53;4.90;;;;;;;8.36;67.59;99312.26;1744765;80;20960;-77
2022/02/18 08:35:22;;;;;;;9.18;4.95;;;;;;;8.41;67.60;99319.34;1744497;82;20941;-81
2022/02/18 08:37:49;;;;;;;6.20;4.08;;;;;;;8.42;67.51;99319.22;1744926;82;20932;-79
2022/02/18 08:40:16;;;;;;;9.38;4.42;;;;;;;8.40;67.26;99328.94;1744795;81;20913;-80
2022/02/18 08:42:42;;;;;;;9.15;5.25;;;;;;;8.39;67.28;99329.04;1744854;80;21123;-77
2022/02/18 08:45:10;;;;;;;7.95;5.22;;;;;;;8.37;67.53;99323.09;1744513;82;20881;-77
2022/02/18 08:47:38;;;;;;;7.42;4.30;;;;;;;8.39;67.71;99320.72;1744466;82;20932;-78
2022/02/18 08:50:09;;;;;;;6.50;4.42;;;;;;;8.48;67.61;99320.09;1744642;81;21445;-77
2022/02/18 08:52:39;;;;;;;5.25;3.70;;;;;;;8.69;67.87;99324.25;1744795;81;20980;-74
2022/02/18 08:55:09;;;;;;;4.37;3.70;;;;;;;8.87;67.16;99326.42;1744457;81;21115;-75
2022/02/18 08:57:35;;;;;;;7.25;5.20;;;;;;;8.97;66.77;99333.97;1744410;81;20921;-76
2022/02/18 09:00:03;;;;;;;4.58;3.45;;;;;;;8.99;66.98;99333.86;1744553;82;20894;-75
2022/02/18 09:02:30;;;;;;;6.60;3.27;;;;;;;8.99;66.57;99324.70;1744536;82;20905;-73
2022/02/18 09:04:57;;;;;;;4.87;3.30;;;;;;;8.97;65.95;99330.05;1744494;82;20885;-75
2022/02/18 09:07:24;;;;;;;5.40;3.60;;;;;;;8.84;66.23;99325.36;1744548;82;21136;-75
2022/02/18 09:09:50;;;;;;;4.70;3.85;;;;;;;8.74;66.16;99335.66;1744690;82;21407;-74
2022/02/18 09:12:19;;;;;;;6.25;3.95;;;;;;;8.62;66.05;99332.14;1744518;81;20980;-74
2022/02/18 09:14:47;;;;;;;4.30;3.90;;;;;;;8.52;66.33;99342.09;1744462;81;21469;-74
2022/02/18 09:17:22;;;;;;;4.22;3.83;;;;;;;8.40;66.50;99350.28;1743456;81;20861;-76
2022/02/18 09:19:51;;;;;;;5.83;4.22;;;;;;;8.25;66.92;99354.36;1744539;81;21134;-74
2022/02/18 09:22:19;;;;;;;6.05;4.33;;;;;;;8.12;67.47;99354.86;1744584;82;21027;-73
2022/02/18 09:24:48;;;;;;;4.83;4.35;;;;;;;8.03;67.71;99342.46;1708395;82;20935;-75
2022/02/18 09:27:15;;;;;;;3.50;3.22;;;;;;;8.00;67.98;99338.73;1708577;84;21006;-73
2022/02/18 09:29:41;;;;;;;4.50;3.83;;;;;;;8.06;68.27;99343.06;1708904;82;20983;-74
2022/02/18 09:32:08;;;;;;;4.20;3.40;;;;;;;8.10;68.30;99355.44;1708779;82;21766;-74
2022/02/18 09:34:36;;;;;;;5.15;2.98;;;;;;;8.14;68.01;99350.38;1708600;82;21037;-75
2022/02/18 09:37:04;;;;;;;5.05;3.67;;;;;;;8.15;68.22;99353.33;1708770;83;20872;-74
2022/02/18 09:39:32;;;;;;;4.72;3.10;;;;;;;8.21;68.13;99358.61;1708757;84;20861;-73
2022/02/18 09:41:59;;;;;;;4.08;3.02;;;;;;;8.23;67.76;99361.47;1708776;84;21382;-73
2022/02/18 09:44:28;;;;;;;4.15;3.67;;;;;;;8.23;67.55;99368.48;1708725;84;21093;-74
2022/02/18 09:46:55;;;;;;;5.95;3.58;;;;;;;8.22;67.28;99374.15;1734110;82;20908;-74
2022/02/18 09:49:22;;;;;;;3.95;3.22;;;;;;;8.15;67.39;99376.83;1687382;84;20892;-74
2022/02/18 09:51:49;;;;;;;4.35;3.77;;;;;;;8.09;67.66;99373.34;1708625;82;20897;-76
2022/02/18 09:54:17;;;;;;;4.90;3.17;;;;;;;8.01;67.76;99377.80;1744369;81;20924;-75
2022/02/18 09:56:45;;;;;;;3.30;3.10;;;;;;;7.91;67.92;99380.67;1744370;81;21147;-77
2022/02/18 09:59:13;;;;;;;6.47;4.70;;;;;;;7.81;68.01;99373.95;1757121;81;20907;-76
2022/02/18 10:01:40;;;;;;;9.78;7.00;;;;;;;7.74;68.42;99382.33;1757865;81;20928;-76
2022/02/18 10:04:09;;;;;;;6.70;5.00;;;;;;;7.68;68.78;99372.64;1757701;81;20991;-76
2022/02/18 10:06:38;;;;;;;7.90;5.50;;;;;;;7.66;68.60;99375.00;1758052;81;20924;-76
2022/02/18 10:09:05;;;;;;;8.35;5.70;;;;;;;7.66;68.54;99374.52;1757766;81;21107;-77
2022/02/18 10:11:51;;;;;;;6.35;5.28;;;;;;;7.71;68.82;99378.59;1757772;80;21003;-77
2022/02/18 10:14:18;;;;;;;18.60;9.23;;;;;;;7.79;68.92;99384.14;1757741;81;20924;-80
2022/02/18 10:16:45;;;;;;;8.75;7.03;;;;;;;7.85;69.16;99388.47;1757797;80;21027;-81
2022/02/18 10:19:14;;;;;;;5.70;5.20;;;;;;;7.96;69.22;99395.56;1757860;81;20853;-88
2022/02/18 10:21:44;;;;;;;5.03;4.05;;;;;;;8.04;68.42;99401.55;1757882;81;21946;-83
2022/02/18 10:24:15;;;;;;;5.83;5.33;;;;;;;8.03;68.81;99400.72;1757681;81;20975;-79
2022/02/18 10:26:49;;;;;;;4.97;4.45;;;;;;;8.06;68.41;99412.25;1757806;81;20896;-80
2022/02/18 10:29:23;;;;;;;4.70;3.70;;;;;;;8.04;68.29;99414.13;1721086;82;20927;-78
2022/02/18 10:32:15;;;;;;;5.30;3.75;;;;;;;7.99;68.03;99419.31;1722009;83;20939;-78
2022/02/18 10:34:58;;;;;;;3.60;3.30;;;;;;;7.95;68.25;99422.59;1721780;83;21128;-79
2022/02/18 10:37:27;;;;;;;7.30;5.58;;;;;;;7.89;68.14;99429.09;1721799;83;20966;-78
2022/02/18 10:40:14;;;;;;;4.37;3.77;;;;;;;7.81;68.11;99441.81;1721680;82;20963;-78
2022/02/18 10:42:44;;;;;;;3.55;3.25;;;;;;;7.74;68.10;99442.34;1692728;83;20947;-76
2022/02/18 10:45:18;;;;;;;4.95;3.75;;;;;;;7.67;68.30;99455.79;1692894;84;20903;-77
2022/02/18 10:47:46;;;;;;;4.72;4.30;;;;;;;7.62;68.64;99457.84;1693246;84;21138;-76
2022/02/18 10:50:21;;;;;;;4.45;3.20;;;;;;;7.61;68.82;99465.33;1693074;84;20935;-80
2022/02/18 10:53:12;;;;;;;3.75;3.35;;;;;;;7.58;68.78;99471.20;1693582;83;20936;-78
2022/02/18 10:56:00;;;;;;;4.65;3.10;;;;;;;7.52;68.81;99475.06;1692801;84;20915;-77
2022/02/18 10:58:32;;;;;;;3.30;3.02;;;;;;;7.53;68.76;99478.03;1690505;84;20998;-78
2022/02/18 11:01:13;;;;;;;2.95;2.65;;;;;;;7.54;68.57;99479.72;1687634;85;21137;-79
2022/02/18 11:03:50;;;;;;;4.05;2.83;;;;;;;7.45;68.10;99498.59;1687841;85;21011;-78
2022/02/18 11:06:33;;;;;;;3.65;2.80;;;;;;;7.32;68.06;99491.19;1687645;85;20911;-78
2022/02/18 11:09:11;;;;;;;2.80;1.90;;;;;;;7.25;68.19;99499.40;1687716;85;20951;-80
2022/02/18 11:11:44;;;;;;;1.82;1.72;;;;;;;7.20;68.09;99500.61;1687906;83;20990;-78
2022/02/18 11:14:17;;;;;;;2.00;1.90;;;;;;;7.18;68.10;99503.78;1687895;83;21169;-79
2022/02/18 11:16:52;;;;;;;2.30;1.25;;;;;;;7.15;67.77;99512.64;1687701;85;21484;-77
2022/02/18 11:19:21;;;;;;;2.15;1.20;;;;;;;7.10;67.49;99513.89;1687800;85;20892;-75
2022/02/18 11:21:49;;;;;;;1.60;1.50;;;;;;;7.04;67.27;99517.70;1687688;83;21464;-77
2022/02/18 11:24:17;;;;;;;1.35;1.25;;;;;;;7.02;67.52;99518.27;1687864;85;20955;-76
2022/02/18 11:26:44;;;;;;;2.60;2.20;;;;;;;7.04;67.56;99527.66;1687625;85;21797;-75
2022/02/18 11:29:12;;;;;;;2.75;1.17;;;;;;;7.04;67.08;99529.43;1687592;85;21315;-75
2022/02/18 11:31:50;;;;;;;1.02;1.00;;;;;;;6.98;67.09;99540.23;1687799;85;20939;-79
2022/02/18 11:34:38;;;;;;;1.52;0.98;;;;;;;6.93;66.77;99547.04;1687709;83;20994;-77
2022/02/18 11:38:02;;;;;;;1.27;1.17;;;;;;;6.89;66.86;99540.81;1687612;85;20939;-76
2022/02/18 11:41:11;;;;;;;0.90;0.90;;;;;;;6.85;66.72;99554.52;1687701;85;21354;-77